Time;durP1;ratioP1;P1;durP2;ratioP2;P2;SDS_P1;SDS_P2;PMS_P1;PMS_P2;Temp;Humidity;BMP_temperature;BMP_pressure;BME280_temperature;BME280_humidity;BME280_pressure;Samples;Min_cycle;Max_cycle;Signal;HPM_P1;HPM_P2
2020/12/13 00:00:11;;;;;;;79.90;39.58;;;6.60;99.90;;;;;;5012435;28;20034;-85
2020/12/13 00:02:38;;;;;;;84.47;40.20;;;6.60;99.90;;;;;;5012637;28;20097;-85
2020/12/13 00:05:05;;;;;;;86.57;40.83;;;6.60;99.90;;;;;;5010127;28;20487;-84
2020/12/13 00:07:31;;;;;;;83.35;40.80;;;6.60;99.90;;;;;;5031822;28;20029;-84
2020/12/13 00:09:58;;;;;;;83.07;37.42;;;6.60;99.90;;;;;;5014821;28;20041;-85
2020/12/13 00:12:24;;;;;;;81.10;38.50;;;6.60;99.90;;;;;;5012225;28;20034;-85
2020/12/13 00:14:50;;;;;;;86.82;38.88;;;6.60;99.90;;;;;;5012506;28;20379;-84
2020/12/13 00:17:17;;;;;;;84.20;40.63;;;6.60;99.90;;;;;;5010880;28;20061;-86
2020/12/13 00:19:43;;;;;;;89.45;39.67;;;6.60;99.90;;;;;;4994971;28;20459;-85
2020/12/13 00:22:09;;;;;;;83.82;38.95;;;6.60;99.90;;;;;;5012130;28;20045;-85
2020/12/13 00:24:36;;;;;;;95.35;40.58;;;6.60;99.90;;;;;;5012261;28;20033;-85
2020/12/13 00:27:02;;;;;;;87.00;39.60;;;6.60;99.90;;;;;;5001247;28;20049;-86
2020/12/13 00:29:28;;;;;;;91.78;41.28;;;6.60;99.90;;;;;;5011613;28;20057;-84
2020/12/13 00:31:55;;;;;;;82.80;39.58;;;6.60;99.90;;;;;;4994388;28;20056;-84
2020/12/13 00:34:21;;;;;;;87.18;40.30;;;6.60;99.90;;;;;;4995209;28;20069;-79
2020/12/13 00:36:52;;;;;;;84.10;39.03;;;6.70;99.90;;;;;;5012526;28;20026;-85
2020/12/13 00:39:18;;;;;;;83.22;38.67;;;6.60;99.90;;;;;;4995100;28;20050;-86
2020/12/13 00:41:49;;;;;;;79.15;38.92;;;6.70;99.90;;;;;;4995142;28;20057;-85
2020/12/13 00:44:16;;;;;;;76.97;38.38;;;6.70;99.90;;;;;;5012168;28;20081;-85
2020/12/13 00:46:42;;;;;;;84.63;39.10;;;6.70;99.90;;;;;;5012269;28;20034;-84
2020/12/13 00:49:08;;;;;;;79.70;38.42;;;6.70;99.90;;;;;;5015471;28;20041;-83
2020/12/13 00:51:35;;;;;;;86.97;39.40;;;6.70;99.90;;;;;;4998565;28;20475;-84
2020/12/13 00:54:02;;;;;;;91.95;42.35;;;6.70;99.90;;;;;;5017172;28;20048;-85
2020/12/13 00:56:29;;;;;;;86.68;41.15;;;6.60;99.90;;;;;;4998488;28;20049;-85
2020/12/13 00:58:56;;;;;;;82.72;38.92;;;6.70;99.90;;;;;;5000097;28;20367;-86
2020/12/13 01:01:22;;;;;;;87.57;40.97;;;6.60;99.90;;;;;;5016603;28;20443;-83
2020/12/13 01:03:49;;;;;;;82.78;39.05;;;6.70;99.90;;;;;;4999396;28;20045;-86
2020/12/13 01:06:24;;;;;;;81.28;40.22;;;6.80;99.90;;;;;;5018321;28;20045;-86
2020/12/13 01:08:52;;;;;;;89.80;38.70;;;6.80;99.90;;;;;;4995646;28;20069;-85
2020/12/13 01:11:37;;;;;;;83.45;41.03;;;6.80;99.90;;;;;;5000065;28;20037;-85
2020/12/13 01:14:03;;;;;;;75.28;36.67;;;6.80;99.90;;;;;;5016384;28;20050;-85
2020/12/13 01:16:30;;;;;;;80.95;39.30;;;6.80;99.90;;;;;;5016014;28;20034;-85
2020/12/13 01:18:59;;;;;;;94.85;46.50;;;6.70;99.90;;;;;;5016018;28;20040;-85
2020/12/13 01:21:27;;;;;;;83.03;41.20;;;6.70;99.90;;;;;;5015599;28;20471;-84
2020/12/13 01:23:53;;;;;;;83.10;39.78;;;6.70;99.90;;;;;;5001415;28;20041;-84
2020/12/13 01:26:21;;;;;;;84.40;39.00;;;6.70;99.90;;;;;;5035764;28;20021;-80
2020/12/13 01:28:48;;;;;;;85.03;40.45;;;6.70;99.90;;;;;;5016306;28;20045;-85
2020/12/13 01:31:17;;;;;;;89.43;40.78;;;6.80;99.90;;;;;;5015555;28;20046;-85
2020/12/13 01:33:47;;;;;;;86.40;38.42;;;6.80;99.90;;;;;;5015085;28;20049;-85
2020/12/13 01:36:16;;;;;;;71.45;36.58;;;6.80;99.90;;;;;;5015534;28;20041;-85
2020/12/13 01:38:42;;;;;;;71.55;38.38;;;6.80;99.90;;;;;;5015054;28;20102;-84
2020/12/13 01:41:09;;;;;;;90.57;44.45;;;6.80;99.90;;;;;;5015179;28;20034;-85
2020/12/13 01:43:36;;;;;;;85.20;38.58;;;6.80;99.90;;;;;;4996599;28;20045;-85
2020/12/13 01:46:03;;;;;;;77.05;36.50;;;6.80;99.90;;;;;;5014943;28;20034;-85
2020/12/13 01:48:30;;;;;;;72.28;37.58;;;6.80;99.90;;;;;;5014547;28;20041;-85
2020/12/13 01:51:24;;;;;;;70.10;35.58;;;6.90;99.90;;;;;;5015550;28;20439;-85
2020/12/13 01:53:54;;;;;;;74.60;38.55;;;6.90;99.90;;;;;;5015484;28;20387;-85
2020/12/13 01:56:21;;;;;;;65.57;35.85;;;6.80;99.90;;;;;;5015140;28;20046;-85
2020/12/13 01:58:52;;;;;;;79.30;39.30;;;6.80;99.90;;;;;;5013937;28;20503;-85
2020/12/13 02:01:20;;;;;;;79.25;38.50;;;6.80;99.90;;;;;;5014259;28;20038;-83
2020/12/13 02:03:53;;;;;;;86.05;46.85;;;6.80;99.90;;;;;;5013337;28;20388;-85
2020/12/13 02:06:24;;;;;;;78.75;38.33;;;6.80;99.90;;;;;;5015206;28;20033;-85
2020/12/13 02:08:51;;;;;;;76.53;36.33;;;6.90;99.90;;;;;;4998026;28;20042;-85
2020/12/13 02:11:19;;;;;;;73.00;35.35;;;6.90;99.90;;;;;;5014633;28;20038;-84
2020/12/13 02:13:49;;;;;;;67.20;35.13;;;6.90;99.90;;;;;;5014648;28;20034;-85
2020/12/13 02:16:17;;;;;;;67.28;33.00;;;6.90;99.90;;;;;;5014788;28;20034;-85
2020/12/13 02:18:44;;;;;;;64.80;34.15;;;6.90;99.90;;;;;;5014472;28;20052;-85
2020/12/13 02:21:12;;;;;;;65.32;35.92;;;6.90;99.90;;;;;;5014649;28;20041;-86
2020/12/13 02:23:40;;;;;;;70.85;35.75;;;6.90;99.90;;;;;;4997612;28;20065;-85
2020/12/13 02:26:12;;;;;;;69.25;33.50;;;6.90;99.90;;;;;;5015128;28;20386;-85
2020/12/13 02:28:39;;;;;;;64.32;34.40;;;6.80;99.90;;;;;;5012159;28;20034;-85
2020/12/13 02:31:06;;;;;;;60.10;33.00;;;6.80;99.90;;;;;;5014822;28;20037;-85
2020/12/13 02:33:35;;;;;;;62.75;32.53;;;6.80;99.90;;;;;;5014276;28;20376;-85
2020/12/13 02:36:03;;;;;;;65.60;34.65;;;6.80;99.90;;;;;;5016007;28;20041;-85
2020/12/13 02:38:31;;;;;;;67.13;33.85;;;6.90;99.90;;;;;;5013834;28;20037;-85
2020/12/13 02:41:01;;;;;;;64.20;31.73;;;6.90;99.90;;;;;;5014726;28;20036;-85
2020/12/13 02:43:27;;;;;;;63.70;35.65;;;6.90;99.90;;;;;;5012259;28;20132;-84
2020/12/13 02:45:54;;;;;;;61.90;32.13;;;6.90;99.90;;;;;;5014796;28;20045;-84
2020/12/13 02:48:21;;;;;;;66.68;32.88;;;6.90;99.90;;;;;;5014490;28;20377;-84
2020/12/13 02:50:47;;;;;;;67.22;32.65;;;6.90;99.90;;;;;;5014893;28;20058;-84
2020/12/13 02:53:13;;;;;;;66.20;34.50;;;6.90;99.90;;;;;;5014821;28;20383;-84
2020/12/13 02:55:39;;;;;;;63.83;33.95;;;6.90;99.90;;;;;;5015303;28;20053;-84
2020/12/13 02:58:06;;;;;;;72.68;34.75;;;6.90;99.90;;;;;;5020439;28;20030;-85
2020/12/13 03:00:32;;;;;;;75.70;34.20;;;6.90;99.90;;;;;;5015450;28;20030;-84
2020/12/13 03:02:58;;;;;;;67.15;34.63;;;6.80;99.90;;;;;;5015174;28;20060;-84
2020/12/13 03:05:24;;;;;;;67.68;34.72;;;6.80;99.90;;;;;;5015521;28;20038;-78
2020/12/13 03:07:51;;;;;;;69.07;34.17;;;6.80;99.90;;;;;;5015299;28;20038;-84
2020/12/13 03:10:17;;;;;;;67.80;35.45;;;6.80;99.90;;;;;;5016449;28;20033;-83
2020/12/13 03:12:43;;;;;;;67.22;34.40;;;6.90;99.90;;;;;;5016877;28;20030;-85
2020/12/13 03:15:09;;;;;;;65.88;33.67;;;6.90;99.90;;;;;;4997275;28;20045;-84
2020/12/13 03:17:36;;;;;;;72.13;34.22;;;6.80;99.90;;;;;;5014912;28;20034;-84
2020/12/13 03:20:03;;;;;;;60.60;30.48;;;6.80;99.90;;;;;;5013811;28;20038;-84
2020/12/13 03:22:29;;;;;;;61.35;33.22;;;6.80;99.90;;;;;;5013568;28;20386;-84
2020/12/13 03:24:55;;;;;;;63.15;31.05;;;6.80;99.90;;;;;;5013794;28;20394;-84
2020/12/13 03:27:24;;;;;;;63.75;31.80;;;6.80;99.90;;;;;;5013758;28;20034;-84
2020/12/13 03:29:51;;;;;;;66.35;31.63;;;6.80;99.90;;;;;;5013371;28;20101;-83
2020/12/13 03:32:18;;;;;;;66.63;31.77;;;6.80;99.90;;;;;;5013866;28;20395;-83
2020/12/13 03:34:44;;;;;;;65.40;32.38;;;6.80;99.90;;;;;;5013232;28;20478;-84
2020/12/13 03:37:11;;;;;;;60.58;31.42;;;6.80;99.90;;;;;;5013142;28;20030;-84
2020/12/13 03:39:37;;;;;;;63.45;32.25;;;6.80;99.90;;;;;;5012836;28;20030;-84
2020/12/13 03:42:03;;;;;;;66.05;32.55;;;6.80;99.90;;;;;;5012614;28;20046;-84
2020/12/13 03:44:29;;;;;;;66.45;32.80;;;6.80;99.90;;;;;;5012899;28;20057;-83
2020/12/13 03:46:55;;;;;;;61.15;31.73;;;6.80;99.90;;;;;;4996102;28;20046;-84
2020/12/13 03:49:21;;;;;;;66.63;31.65;;;6.80;99.90;;;;;;5013328;28;20049;-84
2020/12/13 03:51:48;;;;;;;64.38;31.00;;;6.80;99.90;;;;;;5012074;28;20042;-85
2020/12/13 03:54:14;;;;;;;63.88;31.27;;;6.80;99.90;;;;;;5013140;28;20367;-84
2020/12/13 03:56:40;;;;;;;57.60;30.80;;;6.90;99.90;;;;;;5012639;28;20050;-84
2020/12/13 03:59:06;;;;;;;62.97;32.03;;;6.80;99.90;;;;;;5013113;28;20038;-84
2020/12/13 04:01:32;;;;;;;64.20;33.55;;;6.90;99.90;;;;;;5012573;28;20037;-84
2020/12/13 04:03:59;;;;;;;68.38;32.63;;;6.90;99.90;;;;;;5012985;28;20034;-84
2020/12/13 04:06:25;;;;;;;63.40;33.55;;;6.90;99.90;;;;;;5012653;28;20030;-84
2020/12/13 04:08:51;;;;;;;65.38;34.50;;;6.90;99.90;;;;;;5013683;28;20459;-84
2020/12/13 04:11:17;;;;;;;64.18;32.50;;;6.90;99.90;;;;;;5013617;28;20041;-84
2020/12/13 04:13:44;;;;;;;65.57;32.45;;;6.90;99.90;;;;;;5012282;28;20030;-84
2020/12/13 04:16:13;;;;;;;73.00;34.00;;;6.80;99.90;;;;;;5015044;28;20451;-84
2020/12/13 04:18:39;;;;;;;68.07;34.15;;;6.90;99.90;;;;;;5016157;28;20029;-84
2020/12/13 04:21:06;;;;;;;64.65;33.03;;;6.90;99.90;;;;;;5012922;28;20034;-84
2020/12/13 04:23:32;;;;;;;73.45;34.20;;;6.90;99.90;;;;;;5011752;28;20025;-84
2020/12/13 04:25:59;;;;;;;65.47;33.63;;;6.90;99.90;;;;;;5013162;28;20033;-84
2020/12/13 04:28:25;;;;;;;61.15;32.65;;;6.90;99.90;;;;;;5012562;28;20026;-83
2020/12/13 04:30:51;;;;;;;60.05;31.92;;;6.90;99.90;;;;;;5012541;28;20387;-85
2020/12/13 04:33:17;;;;;;;66.63;29.52;;;6.80;99.90;;;;;;5012352;28;20049;-84
2020/12/13 04:35:43;;;;;;;60.88;31.38;;;6.90;99.90;;;;;;5012354;28;20041;-85
2020/12/13 04:38:10;;;;;;;62.78;31.90;;;6.80;99.90;;;;;;5012398;28;20045;-84
2020/12/13 04:40:36;;;;;;;55.65;31.27;;;6.80;99.90;;;;;;5012003;28;20033;-85
2020/12/13 04:43:02;;;;;;;65.28;31.50;;;6.80;99.90;;;;;;5012309;28;20034;-85
2020/12/13 04:45:29;;;;;;;61.83;31.25;;;6.90;99.90;;;;;;5015687;28;20025;-79
2020/12/13 04:48:09;;;;;;;68.72;33.20;;;6.90;99.90;;;;;;5018854;28;20025;-84
2020/12/13 04:50:39;;;;;;;66.05;31.60;;;6.90;99.90;;;;;;4995817;28;20050;-85
2020/12/13 04:53:09;;;;;;;72.15;34.80;;;6.90;99.90;;;;;;5013232;28;20034;-84
2020/12/13 04:55:48;;;;;;;69.93;36.22;;;7.00;99.90;;;;;;5012073;28;20042;-84
2020/12/13 04:58:15;;;;;;;65.75;31.75;;;7.00;99.90;;;;;;5011581;28;20034;-84
2020/12/13 05:00:44;;;;;;;61.83;31.65;;;7.00;99.90;;;;;;5010280;28;20037;-84
2020/12/13 05:03:15;;;;;;;61.33;31.45;;;7.00;99.90;;;;;;5012089;28;20046;-84
2020/12/13 05:05:41;;;;;;;63.67;32.78;;;6.90;99.90;;;;;;5011748;28;20042;-84
2020/12/13 05:08:08;;;;;;;62.53;34.00;;;7.00;99.90;;;;;;5012470;28;20030;-84
2020/12/13 05:10:38;;;;;;;62.47;34.00;;;7.00;99.90;;;;;;5010850;28;20046;-85
2020/12/13 05:13:08;;;;;;;59.13;31.47;;;6.90;99.90;;;;;;5012603;28;20038;-84
2020/12/13 05:15:36;;;;;;;64.38;32.53;;;6.90;99.90;;;;;;5012194;28;20026;-83
2020/12/13 05:18:03;;;;;;;62.53;32.55;;;6.90;99.90;;;;;;5011871;28;20089;-84
2020/12/13 05:20:30;;;;;;;65.53;33.13;;;6.90;99.90;;;;;;5011561;28;20042;-83
2020/12/13 05:22:57;;;;;;;69.78;34.10;;;6.90;99.90;;;;;;5012375;28;20416;-84
2020/12/13 05:25:35;;;;;;;62.13;32.17;;;6.90;99.90;;;;;;5012107;28;20034;-84
2020/12/13 05:28:05;;;;;;;66.55;33.20;;;6.90;99.90;;;;;;5011800;28;20030;-85
2020/12/13 05:30:37;;;;;;;65.15;32.65;;;6.90;99.90;;;;;;5011469;28;20045;-84
2020/12/13 05:33:06;;;;;;;62.95;32.55;;;6.90;99.90;;;;;;5012396;28;20054;-84
2020/12/13 05:35:33;;;;;;;63.60;31.85;;;6.90;99.90;;;;;;5013115;28;20033;-84
2020/12/13 05:38:07;;;;;;;72.07;35.25;;;6.90;99.90;;;;;;5015561;28;20506;-84
2020/12/13 05:40:35;;;;;;;78.50;37.15;;;7.00;99.90;;;;;;5015301;28;20045;-84
2020/12/13 05:43:20;;;;;;;74.97;36.20;;;7.00;99.90;;;;;;5015495;28;20364;-84
2020/12/13 05:48:38;;;;;;;73.60;36.85;;;7.00;99.90;;;;;;5015995;28;20041;-84
2020/12/13 05:51:16;;;;;;;74.72;34.80;;;7.00;99.90;;;;;;5015046;28;20054;-84
2020/12/13 05:53:43;;;;;;;74.95;37.75;;;7.00;99.90;;;;;;5014110;28;20042;-84
2020/12/13 05:56:10;;;;;;;64.10;34.40;;;7.00;99.90;;;;;;5014584;28;20050;-83
2020/12/13 05:58:37;;;;;;;69.10;34.42;;;7.00;99.90;;;;;;5014693;28;20033;-85
2020/12/13 06:01:05;;;;;;;64.68;33.80;;;7.00;99.90;;;;;;5019109;28;20419;-85
2020/12/13 06:03:34;;;;;;;59.30;29.77;;;7.00;99.90;;;;;;5014397;28;20052;-84
2020/12/13 06:06:09;;;;;;;55.30;27.30;;;7.00;99.90;;;;;;5015044;28;20034;-85
2020/12/13 06:09:05;;;;;;;45.60;23.00;;;7.00;99.90;;;;;;5014545;28;20034;-84
2020/12/13 06:11:36;;;;;;;40.45;19.10;;;7.10;99.90;;;;;;5015199;28;20054;-84
2020/12/13 06:14:08;;;;;;;32.38;18.15;;;7.10;99.90;;;;;;4997703;28;20048;-84
2020/12/13 06:16:34;;;;;;;35.28;16.98;;;7.10;99.90;;;;;;5014845;28;20052;-83
2020/12/13 06:19:02;;;;;;;33.92;17.42;;;7.20;99.90;;;;;;5014960;28;20041;-84
2020/12/13 06:21:29;;;;;;;34.97;16.50;;;7.30;99.90;;;;;;5014054;28;20041;-83
2020/12/13 06:23:56;;;;;;;35.10;18.42;;;7.30;99.90;;;;;;5014801;28;20376;-85
2020/12/13 06:26:24;;;;;;;35.83;18.98;;;7.40;99.90;;;;;;4997440;28;20037;-85
2020/12/13 06:28:52;;;;;;;29.25;16.83;;;7.40;99.90;;;;;;5013964;28;20037;-85
2020/12/13 06:31:19;;;;;;;45.17;23.42;;;7.40;99.90;;;;;;5014409;28;20050;-84
2020/12/13 06:33:45;;;;;;;27.73;16.63;;;7.40;99.90;;;;;;5014098;28;20037;-85
2020/12/13 06:36:12;;;;;;;32.15;18.33;;;7.40;99.90;;;;;;5016294;28;20030;-85
2020/12/13 06:38:40;;;;;;;36.60;17.52;;;7.40;99.90;;;;;;5017048;28;20022;-85
2020/12/13 06:41:07;;;;;;;33.53;18.98;;;7.40;99.90;;;;;;5016927;28;20379;-85
2020/12/13 06:43:55;;;;;;;27.10;15.23;;;7.40;99.90;;;;;;5014968;28;20030;-81
2020/12/13 06:46:25;;;;;;;27.02;15.27;;;7.60;99.90;;;;;;5014132;28;20034;-84
2020/12/13 06:48:53;;;;;;;25.42;14.68;;;7.60;99.90;;;;;;5014234;28;20033;-85
2020/12/13 06:51:32;;;;;;;27.38;15.43;;;7.70;99.90;;;;;;5014244;28;20038;-84
2020/12/13 06:53:59;;;;;;;25.42;15.23;;;7.60;99.90;;;;;;5004509;28;20042;-85
2020/12/13 06:56:26;;;;;;;25.45;13.82;;;7.60;99.90;;;;;;5013624;28;20391;-84
2020/12/13 06:58:55;;;;;;;26.77;13.30;;;7.70;99.90;;;;;;5013873;28;20034;-84
2020/12/13 07:01:24;;;;;;;24.15;14.45;;;7.70;99.90;;;;;;5014496;28;20061;-85
2020/12/13 07:03:52;;;;;;;15.40;10.38;;;7.60;99.90;;;;;;5013211;28;20041;-84
2020/12/13 07:06:26;;;;;;;15.25;10.07;;;7.70;99.90;;;;;;5012111;28;20029;-85
2020/12/13 07:08:57;;;;;;;14.23;8.45;;;7.70;99.90;;;;;;5013215;28;20045;-83
2020/12/13 07:11:25;;;;;;;11.60;8.20;;;7.80;99.90;;;;;;5013926;28;20038;-84
2020/12/13 07:14:05;;;;;;;15.02;10.38;;;7.70;99.90;;;;;;5013294;28;20387;-85
2020/12/13 07:16:40;;;;;;;12.10;8.32;;;7.70;99.90;;;;;;5013570;28;20040;-85
2020/12/13 07:19:09;;;;;;;12.30;8.30;;;7.80;99.90;;;;;;5012996;28;20056;-84
2020/12/13 07:21:37;;;;;;;22.38;14.05;;;7.70;99.90;;;;;;5013336;28;20514;-85
2020/12/13 07:24:04;;;;;;;13.05;9.25;;;7.70;99.90;;;;;;5013757;28;20053;-84
2020/12/13 07:26:33;;;;;;;15.32;9.63;;;7.70;99.90;;;;;;5013280;28;20491;-84
2020/12/13 07:29:00;;;;;;;15.55;10.10;;;7.60;99.90;;;;;;5013872;28;20034;-84
2020/12/13 07:31:35;;;;;;;15.65;10.77;;;7.60;99.90;;;;;;5015180;28;20046;-83
2020/12/13 07:34:05;;;;;;;14.25;9.75;;;7.70;99.90;;;;;;5014513;28;20042;-82
2020/12/13 07:36:33;;;;;;;12.98;9.18;;;7.70;99.90;;;;;;5013204;28;20037;-85
2020/12/13 07:39:05;;;;;;;13.75;9.60;;;7.80;99.90;;;;;;5013344;28;20034;-84
2020/12/13 07:41:32;;;;;;;12.77;8.80;;;7.80;99.90;;;;;;5016178;28;20044;-86
2020/12/13 07:44:04;;;;;;;12.00;7.75;;;7.90;99.90;;;;;;5013656;28;20030;-84
2020/12/13 07:46:32;;;;;;;9.77;6.72;;;7.80;99.90;;;;;;5013016;28;20467;-83
2020/12/13 07:49:04;;;;;;;11.00;7.43;;;7.80;99.90;;;;;;5013417;28;20037;-83
2020/12/13 07:51:32;;;;;;;14.05;8.25;;;7.90;99.90;;;;;;5012653;28;20475;-83
2020/12/13 07:54:13;;;;;;;10.77;8.23;;;7.80;99.90;;;;;;5014558;28;20038;-83
2020/12/13 07:56:41;;;;;;;11.05;8.75;;;7.80;99.90;;;;;;5013078;28;20416;-84
2020/12/13 07:59:12;;;;;;;13.13;9.93;;;7.80;99.90;;;;;;5023458;28;20036;-84
2020/12/13 08:01:39;;;;;;;12.77;8.85;;;7.80;99.90;;;;;;5013075;28;20343;-84
2020/12/13 08:04:06;;;;;;;13.50;8.60;;;7.70;99.90;;;;;;5012712;28;20026;-83
2020/12/13 08:06:33;;;;;;;15.35;10.50;;;7.80;99.90;;;;;;5011965;28;20549;-82
2020/12/13 08:08:59;;;;;;;14.23;8.43;;;7.80;99.90;;;;;;5040129;28;20036;-81
2020/12/13 08:11:26;;;;;;;12.75;7.32;;;7.90;99.90;;;;;;5017666;28;20044;-81
2020/12/13 08:13:54;;;;;;;14.18;8.00;;;8.00;99.90;;;;;;5018577;28;20052;-82
2020/12/13 08:16:25;;;;;;;12.65;8.00;;;7.90;99.90;;;;;;5041875;28;20368;-81
2020/12/13 08:18:55;;;;;;;18.73;12.20;;;7.90;99.90;;;;;;5022863;28;20482;-82
2020/12/13 08:21:35;;;;;;;11.30;8.20;;;7.90;99.90;;;;;;5038142;28;20053;-82
2020/12/13 08:24:03;;;;;;;16.77;10.10;;;7.90;99.90;;;;;;5027018;28;20037;-82
2020/12/13 08:26:30;;;;;;;15.80;10.05;;;7.90;99.90;;;;;;5034306;28;20029;-78
2020/12/13 08:29:00;;;;;;;13.25;8.15;;;7.90;99.90;;;;;;5024071;28;20045;-84
2020/12/13 08:31:31;;;;;;;18.25;12.00;;;7.90;99.90;;;;;;5027593;28;20046;-83
2020/12/13 08:34:04;;;;;;;;;;;7.90;99.90;;;;;;5016782;28;20030;-83
2020/12/13 08:36:31;;;;;;;11.07;7.47;;;7.90;99.90;;;;;;5024681;28;20349;-82
2020/12/13 08:39:08;;;;;;;11.00;7.85;;;7.90;99.90;;;;;;5025848;28;20463;-83
2020/12/13 08:41:35;;;;;;;11.57;7.60;;;7.90;99.90;;;;;;5029070;28;20041;-83
2020/12/13 08:44:01;;;;;;;11.85;8.35;;;7.90;99.90;;;;;;5019705;28;20026;-80
2020/12/13 08:46:42;;;;;;;13.10;9.43;;;7.90;99.90;;;;;;5031361;28;20037;-84
2020/12/13 08:49:08;;;;;;;11.40;9.02;;;8.00;99.90;;;;;;5024873;28;20033;-84
2020/12/13 08:51:34;;;;;;;15.13;11.68;;;8.00;99.90;;;;;;5028968;28;20041;-84
2020/12/13 08:54:04;;;;;;;19.85;13.70;;;8.10;99.90;;;;;;5031872;28;20030;-84
2020/12/13 08:56:38;;;;;;;20.03;14.47;;;8.00;99.90;;;;;;5006200;28;20042;-82
2020/12/13 08:59:06;;;;;;;19.63;13.30;;;7.90;99.90;;;;;;5001343;28;20049;-83
2020/12/13 09:01:35;;;;;;;17.13;13.00;;;7.90;99.90;;;;;;5020523;28;20042;-83
2020/12/13 09:04:19;;;;;;;19.40;14.65;;;7.80;99.90;;;;;;5016872;28;20030;-84
2020/12/13 09:07:02;;;;;;;18.27;12.93;;;7.80;99.90;;;;;;5022739;28;20046;-84
2020/12/13 09:09:33;;;;;;;29.10;18.33;;;7.80;99.90;;;;;;5023944;28;20375;-84
2020/12/13 09:12:00;;;;;;;;;;;7.80;99.90;;;;;;5024632;28;20048;-85
2020/12/13 09:14:27;;;;;;;27.58;15.95;;;7.70;99.90;;;;;;5028094;28;20333;-84
2020/12/13 09:16:54;;;;;;;22.67;15.25;;;7.80;99.90;;;;;;5024489;28;20031;-85
2020/12/13 09:19:20;;;;;;;36.90;22.30;;;7.80;99.90;;;;;;5033715;28;20045;-84
2020/12/13 09:21:48;;;;;;;36.13;22.67;;;7.90;99.90;;;;;;5033636;28;20037;-84
2020/12/13 09:24:17;;;;;;;16.58;12.20;;;7.90;99.90;;;;;;5007627;28;20029;-83
2020/12/13 09:27:18;;;;;;;26.65;16.80;;;7.90;99.90;;;;;;5026252;28;20052;-84
2020/12/13 09:29:48;;;;;;;16.02;11.10;;;8.00;99.90;;;;;;5008798;28;20041;-79
2020/12/13 09:32:16;;;;;;;37.78;23.70;;;8.00;99.90;;;;;;5021754;28;20048;-84
2020/12/13 09:34:43;;;;;;;129.85;65.82;;;8.20;99.90;;;;;;5030186;28;20455;-80
2020/12/13 09:37:11;;;;;;;56.50;31.40;;;8.20;99.90;;;;;;5032918;28;20038;-79
2020/12/13 09:39:37;;;;;;;22.60;14.65;;;8.30;99.90;;;;;;5031636;28;20029;-79
2020/12/13 09:42:04;;;;;;;13.48;9.35;;;8.40;99.90;;;;;;5028081;28;20044;-79
2020/12/13 09:44:31;;;;;;;13.88;8.60;;;8.40;99.90;;;;;;5025957;28;20037;-79
2020/12/13 09:46:59;;;;;;;14.98;9.95;;;8.50;99.90;;;;;;5025443;28;20030;-77
2020/12/13 09:49:26;;;;;;;13.50;8.95;;;8.50;99.90;;;;;;5019450;28;20050;-78
2020/12/13 09:52:02;;;;;;;13.52;8.43;;;8.60;99.90;;;;;;5026741;28;20033;-78
2020/12/13 09:54:29;;;;;;;6.18;4.95;;;8.60;99.90;;;;;;5028094;28;20463;-77
2020/12/13 09:56:55;;;;;;;18.60;10.05;;;8.50;99.90;;;;;;5029363;28;20042;-79
2020/12/13 09:59:22;;;;;;;11.75;7.05;;;8.60;99.90;;;;;;5022135;28;20037;-82
2020/12/13 10:01:49;;;;;;;20.15;11.20;;;8.60;99.90;;;;;;5031085;28;20033;-81
2020/12/13 10:04:16;;;;;;;14.15;7.93;;;8.70;99.90;;;;;;5028525;28;20034;-82
2020/12/13 10:09:15;;;;;;;8.20;5.40;;;8.70;99.90;;;;;;5026972;28;20057;-82
2020/12/13 10:11:42;;;;;;;17.73;10.45;;;8.60;99.90;;;;;;5032505;28;20048;-81
2020/12/13 10:14:11;;;;;;;42.95;21.70;;;8.60;99.90;;;;;;5041977;28;20099;-83
2020/12/13 10:16:39;;;;;;;15.75;9.95;;;8.70;99.90;;;;;;5025783;28;20384;-84
2020/12/13 10:19:09;;;;;;;22.05;11.65;;;8.70;99.90;;;;;;5026672;28;20046;-81
2020/12/13 10:21:36;;;;;;;28.23;15.48;;;8.60;99.90;;;;;;5035246;28;20030;-82
2020/12/13 10:24:03;;;;;;;24.98;13.63;;;8.70;99.90;;;;;;5023162;28;20030;-83
2020/12/13 10:26:36;;;;;;;41.85;21.98;;;8.80;99.90;;;;;;5012880;28;20042;-83
2020/12/13 10:29:03;;;;;;;16.38;7.72;;;8.80;99.90;;;;;;5014754;28;20037;-83
2020/12/13 10:31:32;;;;;;;12.10;7.72;;;8.70;99.90;;;;;;5023854;28;20037;-83
2020/12/13 10:34:00;;;;;;;8.30;4.97;;;8.70;99.90;;;;;;5024495;28;20022;-82
2020/12/13 10:36:26;;;;;;;6.82;3.65;;;8.80;99.90;;;;;;5027930;28;20327;-84
2020/12/13 10:38:53;;;;;;;5.57;3.65;;;8.80;99.90;;;;;;5027988;28;20037;-82
2020/12/13 10:41:21;;;;;;;8.57;4.43;;;8.80;99.90;;;;;;5034030;28;20037;-82
2020/12/13 10:43:49;;;;;;;11.80;4.63;;;8.80;99.90;;;;;;5032596;28;20046;-82
2020/12/13 10:46:15;;;;;;;10.65;8.10;;;8.80;99.90;;;;;;5036583;28;20021;-83
2020/12/13 10:48:42;;;;;;;8.35;5.80;;;8.90;99.90;;;;;;5045134;28;20021;-83
2020/12/13 10:51:08;;;;;;;8.40;5.28;;;8.90;99.90;;;;;;5019638;28;20042;-83
2020/12/13 10:53:35;;;;;;;8.40;5.43;;;9.00;99.90;;;;;;5033623;28;20454;-82
2020/12/13 10:56:03;;;;;;;10.40;4.53;;;9.00;99.90;;;;;;5030075;28;20045;-84
2020/12/13 10:58:30;;;;;;;6.57;4.57;;;9.00;99.90;;;;;;5019262;28;20296;-83
2020/12/13 11:00:56;;;;;;;10.18;5.30;;;9.00;99.90;;;;;;5022737;28;20517;-83
2020/12/13 11:03:23;;;;;;;6.50;4.68;;;9.00;99.90;;;;;;5017688;28;20056;-83
2020/12/13 11:05:50;;;;;;;7.38;3.47;;;9.10;99.90;;;;;;5018774;28;20030;-84
2020/12/13 11:08:16;;;;;;;5.75;3.38;;;9.00;99.90;;;;;;5029857;28;20033;-83
2020/12/13 11:10:46;;;;;;;10.57;4.40;;;9.00;99.90;;;;;;5028521;28;20030;-84
2020/12/13 11:13:13;;;;;;;11.63;5.80;;;9.00;99.90;;;;;;5015995;28;20038;-83
2020/12/13 11:15:42;;;;;;;8.93;4.93;;;9.00;99.90;;;;;;5015217;28;20293;-83
2020/12/13 11:18:08;;;;;;;6.85;4.28;;;9.10;99.90;;;;;;5031959;28;20355;-82
2020/12/13 11:20:34;;;;;;;6.32;2.78;;;9.20;99.90;;;;;;5021991;28;20040;-82
2020/12/13 11:23:05;;;;;;;4.60;3.75;;;9.20;99.90;;;;;;5025050;28;20038;-82
2020/12/13 11:25:31;;;;;;;8.18;4.80;;;9.20;99.90;;;;;;5014713;28;20048;-78
2020/12/13 11:27:58;;;;;;;8.60;3.55;;;9.20;99.90;;;;;;5007623;28;20026;-81
2020/12/13 11:30:24;;;;;;;6.38;3.75;;;9.30;99.90;;;;;;5038627;28;20056;-82
2020/12/13 11:32:51;;;;;;;6.40;3.78;;;9.30;99.90;;;;;;5029032;28;20042;-82
2020/12/13 11:35:18;;;;;;;5.95;3.45;;;9.30;99.90;;;;;;5021729;28;20056;-82
2020/12/13 11:37:44;;;;;;;3.28;2.28;;;9.40;99.90;;;;;;5023541;28;20034;-81
2020/12/13 11:40:11;;;;;;;4.47;2.20;;;9.40;99.90;;;;;;5032997;28;20513;-82
2020/12/13 11:42:38;;;;;;;4.88;2.83;;;9.40;99.90;;;;;;5026925;28;20042;-81
2020/12/13 11:45:05;;;;;;;4.80;2.22;;;9.40;99.90;;;;;;5022518;28;20030;-81
2020/12/13 11:47:32;;;;;;;4.22;2.70;;;9.50;99.90;;;;;;5017318;28;20485;-80
2020/12/13 11:49:58;;;;;;;8.95;3.70;;;9.70;99.90;;;;;;5034110;28;20378;-79
2020/12/13 11:52:24;;;;;;;10.13;5.05;;;9.70;99.90;;;;;;5045323;28;20038;-80
2020/12/13 11:54:50;;;;;;;7.55;3.75;;;9.70;99.90;;;;;;5025121;28;20053;-81
2020/12/13 11:57:17;;;;;;;6.63;2.47;;;9.70;99.90;;;;;;5012673;28;20053;-81
2020/12/13 11:59:44;;;;;;;9.48;2.30;;;9.70;99.90;;;;;;5000002;28;20034;-81
2020/12/13 12:02:10;;;;;;;12.88;4.95;;;9.60;99.90;;;;;;5005159;28;20053;-81
2020/12/13 12:04:36;;;;;;;6.72;2.97;;;9.50;99.90;;;;;;5007917;28;20037;-80
2020/12/13 12:07:03;;;;;;;4.72;1.52;;;9.50;99.90;;;;;;5007028;28;20040;-81
2020/12/13 12:09:29;;;;;;;7.28;1.50;;;9.40;99.90;;;;;;5008352;28;20471;-80
2020/12/13 12:11:55;;;;;;;2.15;1.10;;;9.30;99.90;;;;;;4997941;28;20406;-79
2020/12/13 12:14:22;;;;;;;4.25;1.40;;;9.30;99.90;;;;;;4998784;28;20037;-80
2020/12/13 12:16:48;;;;;;;3.70;1.45;;;9.40;99.90;;;;;;4996968;28;20041;-78
2020/12/13 12:19:15;;;;;;;3.47;1.40;;;9.40;99.90;;;;;;5011151;28;20025;-80
2020/12/13 12:21:47;;;;;;;4.00;1.27;;;9.50;99.90;;;;;;5013095;28;20034;-80
2020/12/13 12:24:20;;;;;;;2.65;1.20;;;9.60;99.90;;;;;;5000804;28;20042;-80
2020/12/13 12:26:47;;;;;;;3.58;1.38;;;9.60;99.90;;;;;;5009708;28;20455;-80
2020/12/13 12:29:13;;;;;;;3.97;1.65;;;9.60;99.90;;;;;;5001930;28;20038;-80
2020/12/13 12:31:41;;;;;;;4.15;1.65;;;9.80;99.90;;;;;;4999562;28;20046;-80
2020/12/13 12:34:07;;;;;;;6.55;1.83;;;9.90;99.90;;;;;;4999914;28;20030;-80
2020/12/13 12:36:34;;;;;;;5.45;2.05;;;9.90;99.90;;;;;;5003956;28;20513;-81
2020/12/13 12:39:01;;;;;;;4.63;1.67;;;9.80;99.90;;;;;;5004991;28;20038;-80
2020/12/13 12:41:27;;;;;;;4.10;1.77;;;9.70;99.90;;;;;;5004818;28;20035;-81
2020/12/13 12:43:53;;;;;;;4.53;1.90;;;9.80;99.90;;;;;;5005161;28;20038;-80
2020/12/13 12:46:20;;;;;;;9.23;4.63;;;9.90;99.90;;;;;;5013177;28;20030;-80
2020/12/13 12:48:49;;;;;;;42.70;20.67;;;10.00;99.90;;;;;;5003452;28;20030;-81
2020/12/13 12:51:17;;;;;;;26.30;12.00;;;10.10;99.90;;;;;;5009266;28;20038;-83
2020/12/13 12:53:44;;;;;;;7.45;4.32;;;10.30;99.90;;;;;;5007945;28;20038;-82